createdAt,value
2023-01-11T00:00:17.430Z,3.13
2023-01-11T00:02:45.772Z,8.20
2023-01-11T00:05:12.420Z,6.57
2023-01-11T00:07:40.864Z,4.13
2023-01-11T00:10:08.580Z,5.68
2023-01-11T00:12:34.896Z,8.88
2023-01-11T00:15:01.265Z,6.05
2023-01-11T00:17:29.023Z,5.65
2023-01-11T00:19:55.341Z,5.88
2023-01-11T00:22:22.211Z,8.27
2023-01-11T00:24:48.538Z,7.18
2023-01-11T00:27:14.972Z,9.20
2023-01-11T00:29:41.276Z,6.20
2023-01-11T00:32:07.912Z,4.55
2023-01-11T00:34:34.392Z,4.00
2023-01-11T00:37:00.903Z,2.88
2023-01-11T00:39:27.257Z,9.50
2023-01-11T00:42:12.333Z,3.25
2023-01-11T00:44:57.254Z,12.03
2023-01-11T00:47:42.155Z,5.05
2023-01-11T00:50:09.027Z,12.05
2023-01-11T00:52:35.339Z,9.65
2023-01-11T00:55:01.721Z,5.97
2023-01-11T00:57:28.067Z,4.50
2023-01-11T00:59:54.399Z,10.63
2023-01-11T01:02:22.464Z,5.05
2023-01-11T01:07:40.757Z,5.85
2023-01-11T01:10:08.479Z,4.82
2023-01-11T01:12:53.504Z,6.65
2023-01-11T01:15:20.586Z,5.37
2023-01-11T01:17:47.239Z,6.57
2023-01-11T01:20:14.854Z,2.63
2023-01-11T01:22:41.823Z,6.45
2023-01-11T01:25:08.624Z,5.40
2023-01-11T01:27:35.002Z,4.63
2023-01-11T01:30:01.314Z,4.95
2023-01-11T01:32:27.651Z,3.30
2023-01-11T01:34:53.948Z,9.57
2023-01-11T01:37:20.262Z,4.15
2023-01-11T01:39:46.557Z,4.53
2023-01-11T01:42:18.789Z,4.85
2023-01-11T01:45:03.033Z,5.10
2023-01-11T01:47:47.200Z,3.45
2023-01-11T01:50:32.009Z,7.90
2023-01-11T01:53:19.568Z,6.82
2023-01-11T01:55:51.866Z,4.43
2023-01-11T01:58:22.438Z,9.30
2023-01-11T02:00:48.793Z,6.55
2023-01-11T02:03:19.266Z,5.63
2023-01-11T02:05:45.881Z,2.88
2023-01-11T02:08:22.610Z,5.25
2023-01-11T02:10:50.489Z,8.63
2023-01-11T02:13:17.063Z,5.90
2023-01-11T02:15:43.411Z,5.85
2023-01-11T02:18:12.429Z,3.88
2023-01-11T02:20:54.092Z,5.60
2023-01-11T02:23:39.534Z,6.22
2023-01-11T02:26:36.868Z,7.55
2023-01-11T02:29:28.066Z,6.70
2023-01-11T02:32:10.433Z,8.32
2023-01-11T02:34:41.693Z,10.35
2023-01-11T02:37:22.853Z,5.10
2023-01-11T02:40:02.246Z,3.13
2023-01-11T02:43:09.846Z,4.28
2023-01-11T02:46:08.601Z,4.15
2023-01-11T02:48:43.623Z,5.65
2023-01-11T02:51:15.713Z,5.80
2023-01-11T02:54:01.334Z,6.03
2023-01-11T02:56:32.230Z,6.85
2023-01-11T02:59:00.895Z,5.22
2023-01-11T03:01:27.315Z,2.92
2023-01-11T03:03:54.454Z,5.35
2023-01-11T03:06:35.049Z,3.40
2023-01-11T03:09:19.683Z,6.20
2023-01-11T03:12:15.559Z,4.30
2023-01-11T03:14:59.969Z,2.70
2023-01-11T03:17:35.361Z,2.85
2023-01-11T03:20:10.728Z,3.92
2023-01-11T03:23:04.244Z,4.13
2023-01-11T03:25:53.051Z,5.28
2023-01-11T03:29:02.984Z,3.03
2023-01-11T03:31:33.647Z,3.53
2023-01-11T03:34:11.257Z,4.78
2023-01-11T03:36:43.140Z,3.00
2023-01-11T03:39:20.889Z,4.72
2023-01-11T03:41:50.979Z,4.00
2023-01-11T03:44:20.161Z,3.75
2023-01-11T03:46:50.389Z,4.78
2023-01-11T03:49:22.924Z,3.50
2023-01-11T03:51:50.828Z,3.70
2023-01-11T03:54:23.218Z,5.28
2023-01-11T03:56:55.845Z,2.47
2023-01-11T03:59:22.636Z,4.63
2023-01-11T04:01:49.009Z,4.90
2023-01-11T04:04:15.325Z,3.95
2023-01-11T04:06:41.746Z,4.03
2023-01-11T04:09:08.124Z,3.30
2023-01-11T04:11:34.419Z,2.95
2023-01-11T04:14:01.345Z,3.05
2023-01-11T04:16:27.814Z,2.35
2023-01-11T04:18:54.142Z,3.67
2023-01-11T04:21:20.475Z,3.90
2023-01-11T04:23:46.786Z,4.57
2023-01-11T04:26:13.183Z,4.00
2023-01-11T04:28:39.512Z,2.08
2023-01-11T04:31:05.853Z,3.92
2023-01-11T04:33:32.187Z,4.72
2023-01-11T04:35:58.527Z,2.65
2023-01-11T04:38:24.945Z,3.58
2023-01-11T04:41:11.409Z,6.10
2023-01-11T04:43:37.767Z,5.05
2023-01-11T04:46:04.342Z,2.28
2023-01-11T04:48:30.704Z,6.75
2023-01-11T04:50:56.980Z,4.25
2023-01-11T04:53:23.329Z,5.80
2023-01-11T04:55:49.674Z,3.72
2023-01-11T04:58:16.005Z,5.88
2023-01-11T05:00:42.385Z,7.35
2023-01-11T05:03:08.736Z,3.83
2023-01-11T05:05:35.122Z,3.55
2023-01-11T05:08:01.438Z,3.08
2023-01-11T05:10:27.755Z,3.67
2023-01-11T05:12:54.154Z,5.50
2023-01-11T05:15:20.530Z,5.10
2023-01-11T05:17:46.816Z,3.38
2023-01-11T05:20:13.522Z,2.30
2023-01-11T05:22:39.858Z,5.03
2023-01-11T05:25:06.621Z,2.92
2023-01-11T05:27:32.908Z,3.55
2023-01-11T05:29:59.274Z,3.75
2023-01-11T05:32:25.884Z,2.30
2023-01-11T05:34:52.248Z,6.03
2023-01-11T05:37:18.546Z,2.90
2023-01-11T05:39:44.818Z,9.45
2023-01-11T05:42:11.175Z,4.55
2023-01-11T05:44:58.041Z,6.03
2023-01-11T05:47:24.519Z,4.45
2023-01-11T05:49:50.849Z,3.80
2023-01-11T05:52:17.478Z,6.10
2023-01-11T05:54:43.811Z,3.70
2023-01-11T05:57:11.758Z,2.30
2023-01-11T05:59:38.165Z,3.25
2023-01-11T06:02:04.542Z,2.10
2023-01-11T06:04:30.844Z,4.90
2023-01-11T06:06:57.137Z,5.65
2023-01-11T06:09:23.467Z,3.28
2023-01-11T06:11:50.523Z,3.67
2023-01-11T06:14:16.879Z,3.10
2023-01-11T06:16:43.289Z,3.72
2023-01-11T06:19:11.267Z,3.30
2023-01-11T06:21:37.963Z,4.25
2023-01-11T06:24:04.581Z,3.65
2023-01-11T06:26:32.145Z,2.80
2023-01-11T06:28:58.521Z,2.67
2023-01-11T06:31:24.837Z,2.78
2023-01-11T06:33:51.292Z,4.20
2023-01-11T06:36:17.698Z,5.72
2023-01-11T06:38:44.634Z,3.92
2023-01-11T06:41:12.621Z,3.08
2023-01-11T06:43:41.460Z,3.70
2023-01-11T06:46:15.139Z,7.30
2023-01-11T06:48:42.912Z,2.85
2023-01-11T06:51:12.368Z,2.42
2023-01-11T06:53:40.455Z,4.60
2023-01-11T06:56:07.964Z,4.30
2023-01-11T06:58:34.284Z,3.00
2023-01-11T07:01:00.952Z,2.45
2023-01-11T07:03:27.439Z,3.75
2023-01-11T07:05:56.650Z,2.10
2023-01-11T07:08:26.820Z,2.00
2023-01-11T07:10:53.664Z,2.92
2023-01-11T07:13:20.353Z,3.67
2023-01-11T07:15:50.254Z,2.40
2023-01-11T07:18:18.229Z,5.75
2023-01-11T07:20:44.608Z,3.03
2023-01-11T07:23:11.127Z,6.70
2023-01-11T07:25:37.537Z,2.22
2023-01-11T07:28:06.451Z,3.97
2023-01-11T07:30:47.885Z,5.22
2023-01-11T07:33:21.538Z,4.00
2023-01-11T07:35:48.843Z,4.25
2023-01-11T07:38:15.256Z,3.08
2023-01-11T07:40:41.633Z,3.70
2023-01-11T07:43:14.362Z,3.83
2023-01-11T07:45:46.514Z,2.90
2023-01-11T07:48:14.972Z,4.05
2023-01-11T07:50:44.475Z,2.00
2023-01-11T07:53:12.434Z,4.32
2023-01-11T07:55:40.006Z,3.17
2023-01-11T07:58:08.419Z,3.05
2023-01-11T08:00:34.779Z,2.85
2023-01-11T08:03:02.289Z,3.30
2023-01-11T08:05:29.147Z,3.00
2023-01-11T08:07:55.639Z,3.88
2023-01-11T08:10:21.957Z,2.47
2023-01-11T08:13:07.516Z,2.85
2023-01-11T08:15:36.643Z,3.05
2023-01-11T08:18:05.638Z,4.93
2023-01-11T08:20:32.127Z,4.20
2023-01-11T08:23:03.294Z,4.07
2023-01-11T08:25:29.587Z,3.20
2023-01-11T08:27:55.905Z,3.13
2023-01-11T08:30:22.216Z,3.05
2023-01-11T08:32:48.591Z,3.85
2023-01-11T08:35:14.959Z,3.47
2023-01-11T08:37:41.291Z,3.80
2023-01-11T08:40:08.534Z,4.90
2023-01-11T08:42:35.158Z,4.85
2023-01-11T08:45:01.839Z,6.10
2023-01-11T08:47:28.215Z,3.17
2023-01-11T08:49:54.564Z,2.95
2023-01-11T08:52:21.182Z,3.60
2023-01-11T08:54:47.494Z,3.92
2023-01-11T08:57:13.924Z,3.33
2023-01-11T08:59:40.252Z,3.28
2023-01-11T09:02:06.573Z,3.88
2023-01-11T09:04:33.893Z,4.55
2023-01-11T09:07:01.253Z,3.35
2023-01-11T09:09:27.795Z,4.47
2023-01-11T09:11:55.213Z,2.90
2023-01-11T09:14:23.400Z,2.60
2023-01-11T09:16:50.851Z,4.07
2023-01-11T09:19:17.164Z,4.32
2023-01-11T09:21:45.443Z,3.30
2023-01-11T09:24:12.043Z,3.75
2023-01-11T09:26:38.540Z,2.63
2023-01-11T09:29:05.084Z,3.22
2023-01-11T09:31:31.530Z,3.30
2023-01-11T09:33:57.907Z,2.42
2023-01-11T09:36:26.542Z,3.28
2023-01-11T09:38:56.663Z,3.58
2023-01-11T09:41:34.478Z,7.15
2023-01-11T09:44:21.236Z,4.93
2023-01-11T09:46:52.211Z,4.85
2023-01-11T09:49:34.652Z,5.50
2023-01-11T09:52:19.895Z,3.25
2023-01-11T09:54:47.229Z,3.97
2023-01-11T09:57:30.869Z,3.30
2023-01-11T10:00:02.316Z,4.28
2023-01-11T10:02:59.900Z,3.47
2023-01-11T10:06:08.970Z,4.03
2023-01-11T10:18:25.676Z,3.17
2023-01-11T10:18:58.545Z,4.35
2023-01-11T10:21:49.384Z,2.30
2023-01-11T10:24:24.853Z,4.18
2023-01-11T10:29:47.461Z,3.30
2023-01-11T10:32:55.980Z,3.28
2023-01-11T10:35:58.772Z,3.70
2023-01-11T10:38:54.903Z,3.30
2023-01-11T10:41:35.848Z,3.00
2023-01-11T10:44:12.865Z,4.53
2023-01-11T10:46:45.440Z,2.83
2023-01-11T10:49:30.287Z,2.17
2023-01-11T10:52:04.716Z,4.13
2023-01-11T10:54:33.208Z,4.30
2023-01-11T10:57:24.744Z,2.95
2023-01-11T11:00:10.833Z,3.72
2023-01-11T11:02:59.665Z,2.22
2023-01-11T11:05:35.222Z,3.42
2023-01-11T11:10:54.750Z,4.93
2023-01-11T11:13:43.361Z,3.28
2023-01-11T11:16:20.502Z,2.05
2023-01-11T11:18:46.815Z,2.30
2023-01-11T11:21:26.365Z,2.67
2023-01-11T11:24:00.103Z,2.22
2023-01-11T11:26:32.874Z,1.73
2023-01-11T11:29:01.813Z,1.92
2023-01-11T11:31:30.417Z,1.70
2023-01-11T11:33:56.874Z,1.20
2023-01-11T11:36:24.720Z,1.80
2023-01-11T11:39:16.955Z,1.60
2023-01-11T11:41:56.162Z,0.95
2023-01-11T11:44:27.863Z,1.30
2023-01-11T11:47:13.883Z,1.08
2023-01-11T11:52:12.161Z,1.35
2023-01-11T11:54:57.701Z,0.90
2023-01-11T11:57:28.540Z,1.10
2023-01-11T12:00:19.020Z,2.45
2023-01-11T12:02:50.748Z,1.20
2023-01-11T12:05:17.340Z,1.35
2023-01-11T12:07:54.790Z,1.20
2023-01-11T12:10:27.579Z,1.38
2023-01-11T12:12:59.002Z,1.50
2023-01-11T12:15:33.744Z,1.60
2023-01-11T12:18:38.355Z,2.15
2023-01-11T12:21:26.037Z,2.63
2023-01-11T12:24:12.658Z,2.63
2023-01-11T12:26:57.396Z,2.75
2023-01-11T12:29:39.428Z,3.63
2023-01-11T12:32:50.767Z,3.92
2023-01-11T12:35:29.997Z,3.10
2023-01-11T12:38:11.639Z,2.72
2023-01-11T12:41:01.688Z,2.92
2023-01-11T12:43:49.909Z,2.75
2023-01-11T12:46:25.511Z,2.33
2023-01-11T12:49:21.059Z,2.03
2023-01-11T12:52:06.073Z,1.10
2023-01-11T12:54:52.604Z,1.73
2023-01-11T12:57:38.568Z,1.00
2023-01-11T13:02:56.404Z,0.77
2023-01-11T13:05:50.939Z,0.85
2023-01-11T13:08:32.562Z,0.82
2023-01-11T13:11:34.922Z,1.00
2023-01-11T13:14:14.526Z,0.93
2023-01-11T13:17:06.951Z,1.08
2023-01-11T13:19:46.140Z,2.67
2023-01-11T13:22:19.230Z,6.22
2023-01-11T13:24:51.046Z,7.07
2023-01-11T13:27:22.900Z,2.50
2023-01-11T13:29:54.950Z,2.33
2023-01-11T13:32:24.479Z,1.80
2023-01-11T13:35:09.404Z,1.67
2023-01-11T13:37:47.914Z,2.20
2023-01-11T13:40:41.989Z,3.05
2023-01-11T13:43:27.177Z,2.70
2023-01-11T13:46:11.932Z,1.85
2023-01-11T13:48:44.969Z,3.08
2023-01-11T13:51:27.202Z,1.55
2023-01-11T13:54:03.217Z,4.07
2023-01-11T13:56:41.943Z,3.60
2023-01-11T13:59:37.675Z,2.80
2023-01-11T14:02:23.145Z,5.95
2023-01-11T14:04:58.713Z,4.82
2023-01-11T14:08:02.786Z,2.95
2023-01-11T14:10:29.097Z,4.78
2023-01-11T14:13:44.997Z,2.40
2023-01-11T14:16:30.803Z,4.18
2023-01-11T14:19:14.003Z,4.05
2023-01-11T14:22:14.356Z,2.88
2023-01-11T14:24:56.394Z,3.40
2023-01-11T14:27:50.587Z,4.25
2023-01-11T14:30:50.407Z,4.25
2023-01-11T14:33:47.644Z,6.88
2023-01-11T14:36:51.193Z,4.32
2023-01-11T14:39:48.731Z,4.43
2023-01-11T14:42:38.178Z,4.72
2023-01-11T14:45:30.948Z,4.93
2023-01-11T14:48:29.824Z,8.85
2023-01-11T14:51:14.205Z,4.00
2023-01-11T14:54:04.486Z,5.10
2023-01-11T14:56:42.502Z,7.10
2023-01-11T14:59:24.079Z,6.05
2023-01-11T15:02:02.597Z,5.20
2023-01-11T15:04:33.439Z,8.13
2023-01-11T15:07:01.060Z,5.03
2023-01-11T15:09:47.233Z,5.03
2023-01-11T15:12:15.051Z,5.07
2023-01-11T15:14:48.222Z,4.88
2023-01-11T15:17:39.365Z,6.72
2023-01-11T15:20:08.670Z,6.53
2023-01-11T15:22:35.277Z,5.22
2023-01-11T15:25:05.498Z,7.13
2023-01-11T15:27:38.446Z,4.32
2023-01-11T15:30:27.365Z,8.93
2023-01-11T15:32:53.661Z,4.78
2023-01-11T15:35:23.068Z,5.60
2023-01-11T15:38:00.495Z,3.83
2023-01-11T15:40:30.509Z,5.00
2023-01-11T15:43:28.581Z,6.50
2023-01-11T15:46:39.511Z,3.60
2023-01-11T15:49:27.029Z,4.72
2023-01-11T15:52:52.120Z,6.80
2023-01-11T15:55:48.155Z,3.70
2023-01-11T15:58:21.822Z,4.22
2023-01-11T16:01:13.522Z,6.35
2023-01-11T16:04:10.325Z,9.25
2023-01-11T16:06:48.981Z,9.18
2023-01-11T16:09:43.015Z,3.55
2023-01-11T16:12:27.740Z,4.90
2023-01-11T16:15:27.463Z,9.90
2023-01-11T16:17:54.432Z,10.50
2023-01-11T16:20:20.719Z,8.40
2023-01-11T16:23:02.390Z,7.10
2023-01-11T16:25:32.632Z,4.18
2023-01-11T16:28:00.106Z,4.55
2023-01-11T16:30:28.229Z,7.47
2023-01-11T16:33:34.329Z,5.20
2023-01-11T16:36:12.387Z,7.20
2023-01-11T16:39:00.964Z,12.27
2023-01-11T16:41:35.119Z,7.55
2023-01-11T16:44:07.699Z,7.78
2023-01-11T16:46:46.220Z,5.50
2023-01-11T16:49:21.592Z,9.05
2023-01-11T16:54:26.211Z,5.63
2023-01-11T16:56:53.783Z,6.22
2023-01-11T16:59:26.301Z,9.18
2023-01-11T17:01:54.266Z,6.80
2023-01-11T17:04:30.495Z,5.28
2023-01-11T17:07:11.004Z,6.65
2023-01-11T17:09:37.333Z,4.57
2023-01-11T17:12:06.170Z,11.10
2023-01-11T17:14:51.408Z,6.57
2023-01-11T17:17:17.995Z,6.53
2023-01-11T17:19:48.116Z,5.55
2023-01-11T17:22:29.194Z,6.03
2023-01-11T17:24:58.426Z,4.82
2023-01-11T17:27:30.761Z,8.00
2023-01-11T17:29:58.135Z,9.55
2023-01-11T17:32:33.817Z,11.18
2023-01-11T17:35:04.113Z,8.02
2023-01-11T17:37:30.949Z,10.27
2023-01-11T17:39:58.080Z,10.10
2023-01-11T17:42:43.401Z,7.93
2023-01-11T17:45:22.370Z,6.22
2023-01-11T17:47:54.109Z,6.60
2023-01-11T17:50:32.603Z,8.93
2023-01-11T17:53:22.396Z,7.55
2023-01-11T17:55:57.733Z,7.85
2023-01-11T17:58:31.763Z,10.55
2023-01-11T18:01:04.513Z,11.15
2023-01-11T18:03:38.557Z,9.75
2023-01-11T18:06:19.303Z,9.40
2023-01-11T18:08:54.489Z,10.10
2023-01-11T18:11:26.644Z,9.57
2023-01-11T18:13:55.219Z,9.27
2023-01-11T18:16:22.427Z,8.80
2023-01-11T18:18:50.996Z,5.90
2023-01-11T18:21:26.548Z,8.73
2023-01-11T18:26:40.106Z,8.73
2023-01-11T18:29:17.702Z,7.10
2023-01-11T18:31:44.048Z,9.13
2023-01-11T18:34:10.387Z,6.80
2023-01-11T18:36:37.164Z,6.70
2023-01-11T18:39:10.143Z,10.02
2023-01-11T18:41:55.821Z,12.73
2023-01-11T18:44:22.171Z,5.45
2023-01-11T18:46:48.470Z,6.78
2023-01-11T18:49:14.772Z,9.05
2023-01-11T18:51:41.589Z,9.10
2023-01-11T18:54:15.649Z,7.30
2023-01-11T18:56:41.935Z,8.48
2023-01-11T18:59:08.221Z,8.32
2023-01-11T19:01:46.894Z,10.07
2023-01-11T19:06:46.862Z,9.90
2023-01-11T19:09:13.191Z,10.95
2023-01-11T19:11:39.532Z,8.07
2023-01-11T19:14:05.898Z,7.05
2023-01-11T19:16:32.265Z,5.90
2023-01-11T19:18:58.856Z,9.98
2023-01-11T19:21:25.204Z,7.53
2023-01-11T19:23:51.654Z,10.93
2023-01-11T19:26:18.031Z,9.02
2023-01-11T19:28:44.376Z,12.18
2023-01-11T19:31:13.679Z,11.02
2023-01-11T19:33:41.395Z,9.23
2023-01-11T19:36:08.449Z,5.55
2023-01-11T19:38:35.580Z,6.90
2023-01-11T19:41:07.943Z,10.02
2023-01-11T19:43:34.569Z,11.25
2023-01-11T19:46:02.152Z,6.00
2023-01-11T19:48:30.459Z,7.88
2023-01-11T19:51:07.618Z,7.38
2023-01-11T19:53:34.565Z,10.65
2023-01-11T19:56:03.001Z,5.70
2023-01-11T19:58:29.707Z,5.38
2023-01-11T20:00:56.074Z,12.20
2023-01-11T20:03:22.802Z,7.60
2023-01-11T20:05:49.701Z,10.38
2023-01-11T20:08:17.015Z,10.75
2023-01-11T20:10:43.449Z,11.30
2023-01-11T20:13:09.766Z,6.18
2023-01-11T20:15:36.878Z,8.20
2023-01-11T20:18:03.622Z,8.25
2023-01-11T20:20:30.020Z,7.78
2023-01-11T20:22:56.303Z,6.47
2023-01-11T20:25:22.655Z,6.85
2023-01-11T20:27:49.159Z,9.93
2023-01-11T20:30:15.868Z,7.25
2023-01-11T20:32:42.641Z,10.38
2023-01-11T20:35:10.375Z,12.02
2023-01-11T20:37:36.701Z,5.25
2023-01-11T20:40:03.406Z,7.15
2023-01-11T20:42:30.955Z,5.28
2023-01-11T20:44:57.299Z,5.50
2023-01-11T20:47:23.631Z,10.77
2023-01-11T20:49:49.918Z,10.18
2023-01-11T20:52:16.253Z,7.57
2023-01-11T20:54:42.643Z,7.40
2023-01-11T20:57:12.190Z,6.95
2023-01-11T20:59:38.591Z,6.60
2023-01-11T21:02:07.249Z,6.28
2023-01-11T21:04:33.597Z,7.10
2023-01-11T21:06:59.888Z,8.80
2023-01-11T21:09:26.224Z,7.30
2023-01-11T21:11:53.792Z,9.07
2023-01-11T21:14:23.936Z,9.35
2023-01-11T21:16:50.415Z,5.95
2023-01-11T21:19:16.847Z,8.02
2023-01-11T21:21:43.217Z,4.07
2023-01-11T21:24:14.282Z,10.43
2023-01-11T21:26:42.277Z,11.32
2023-01-11T21:29:11.334Z,8.68
2023-01-11T21:31:38.315Z,12.27
2023-01-11T21:34:05.167Z,9.90
2023-01-11T21:36:32.072Z,13.57
2023-01-11T21:38:59.800Z,8.93
2023-01-11T21:41:47.607Z,12.38
2023-01-11T21:44:15.075Z,6.07
2023-01-11T21:46:42.095Z,8.13
2023-01-11T21:49:09.439Z,9.52
2023-01-11T21:51:36.089Z,8.63
2023-01-11T21:54:08.006Z,7.57
2023-01-11T21:56:34.919Z,6.82
2023-01-11T21:59:01.703Z,7.72
2023-01-11T22:01:28.251Z,9.85
2023-01-11T22:03:54.739Z,10.85
2023-01-11T22:06:21.868Z,10.77
2023-01-11T22:08:48.155Z,11.30
2023-01-11T22:11:16.000Z,5.00
2023-01-11T22:13:42.676Z,10.40
2023-01-11T22:16:14.851Z,8.05
2023-01-11T22:18:41.779Z,9.43
2023-01-11T22:21:19.027Z,7.15
2023-01-11T22:23:46.889Z,11.65
2023-01-11T22:26:18.070Z,9.25
2023-01-11T22:29:05.107Z,5.97
2023-01-11T22:31:33.058Z,6.82
2023-01-11T22:34:00.299Z,4.70
2023-01-11T22:36:28.054Z,9.63
2023-01-11T22:38:54.832Z,6.68
2023-01-11T22:41:21.662Z,4.68
2023-01-11T22:43:49.510Z,9.45
2023-01-11T22:46:18.831Z,8.70
2023-01-11T22:48:47.032Z,7.13
2023-01-11T22:51:14.606Z,7.28
2023-01-11T22:53:43.575Z,13.90
2023-01-11T22:56:11.219Z,10.65
2023-01-11T22:58:37.661Z,7.28
2023-01-11T23:01:11.448Z,6.20
2023-01-11T23:03:39.021Z,5.55
2023-01-11T23:06:05.877Z,7.10
2023-01-11T23:08:40.778Z,6.22
2023-01-11T23:11:35.641Z,7.82
2023-01-11T23:14:06.939Z,7.78
2023-01-11T23:16:34.125Z,7.28
2023-01-11T23:19:01.152Z,7.32
2023-01-11T23:21:27.988Z,7.55
2023-01-11T23:23:54.628Z,10.38
2023-01-11T23:26:22.064Z,6.10
2023-01-11T23:28:49.586Z,5.53
2023-01-11T23:31:21.770Z,12.75
2023-01-11T23:33:56.402Z,10.88
2023-01-11T23:36:26.418Z,7.87
2023-01-11T23:38:52.717Z,8.35
2023-01-11T23:41:39.150Z,9.55
2023-01-11T23:44:11.424Z,6.35
2023-01-11T23:46:57.438Z,4.38
2023-01-11T23:51:51.931Z,9.15
2023-01-11T23:54:18.335Z,7.82
2023-01-11T23:56:44.660Z,11.60
2023-01-11T23:59:11.462Z,10.48
